Time;durP1;ratioP1;P1;durP2;ratioP2;P2;SDS_P1;SDS_P2;PMS_P1;PMS_P2;Temp;Humidity;BMP_temperature;BMP_pressure;BME280_temperature;BME280_humidity;BME280_pressure;Samples;Min_cycle;Max_cycle;Signal;HPM_P1;HPM_P2
2021/01/04 00:02:10;;;;;;;10.43;9.52;;;0.60;99.90;;;;;;5044029;28;20060;-76
2021/01/04 00:04:58;;;;;;;11.00;9.98;;;0.60;99.90;;;;;;5042200;28;20142;-76
2021/01/04 00:07:48;;;;;;;11.15;9.98;;;0.70;99.90;;;;;;5035158;28;20458;-75
2021/01/04 00:10:23;;;;;;;11.25;10.25;;;0.60;99.90;;;;;;5023021;28;20097;-75
2021/01/04 00:13:08;;;;;;;11.35;10.32;;;0.60;99.90;;;;;;5027174;28;20032;-76
2021/01/04 00:15:56;;;;;;;11.73;10.67;;;0.70;99.90;;;;;;5043383;28;20516;-76
2021/01/04 00:18:43;;;;;;;13.20;11.05;;;0.60;99.90;;;;;;5027045;28;20296;-76
2021/01/04 00:21:36;;;;;;;12.02;10.93;;;0.60;99.90;;;;;;5032123;28;20138;-75
2021/01/04 00:24:12;;;;;;;12.77;11.02;;;0.60;99.90;;;;;;5006448;28;20227;-76
2021/01/04 00:27:09;;;;;;;11.52;10.43;;;0.70;99.90;;;;;;5024570;28;20047;-77
2021/01/04 00:29:36;;;;;;;12.65;11.15;;;0.70;99.90;;;;;;5027049;28;20052;-77
2021/01/04 00:32:20;;;;;;;9.95;9.15;;;0.70;99.90;;;;;;5042908;28;20063;-77
2021/01/04 00:34:51;;;;;;;12.38;11.07;;;0.60;99.90;;;;;;5043070;28;20077;-77
2021/01/04 00:38:01;;;;;;;12.25;11.05;;;0.50;99.90;;;;;;5020219;28;20480;-76
2021/01/04 00:40:52;;;;;;;12.02;10.70;;;0.50;99.90;;;;;;5038352;28;20057;-75
2021/01/04 00:43:37;;;;;;;10.93;9.85;;;0.60;99.90;;;;;;5036194;28;20209;-75
2021/01/04 00:46:05;;;;;;;11.75;10.63;;;0.60;99.90;;;;;;5038776;28;20478;-76
2021/01/04 00:48:46;;;;;;;11.57;10.48;;;0.70;99.90;;;;;;5026257;28;20058;-76
2021/01/04 00:51:36;;;;;;;12.57;11.27;;;0.60;99.90;;;;;;5025514;28;20143;-76
2021/01/04 00:54:30;;;;;;;11.98;10.77;;;0.70;99.90;;;;;;5027374;28;20091;-74
2021/01/04 00:57:11;;;;;;;11.65;10.00;;;0.70;99.90;;;;;;5016011;28;20148;-75
2021/01/04 01:00:01;;;;;;;11.40;10.30;;;0.70;99.90;;;;;;5025964;28;20127;-74
2021/01/04 01:03:13;;;;;;;12.27;11.02;;;0.70;99.90;;;;;;5013382;28;20255;-75
2021/01/04 01:06:00;;;;;;;11.95;9.73;;;0.70;99.90;;;;;;5042157;28;20578;-75
2021/01/04 01:08:33;;;;;;;11.40;10.30;;;0.60;99.90;;;;;;5041417;28;20067;-75
2021/01/04 01:11:09;;;;;;;12.15;10.95;;;0.60;99.90;;;;;;5045425;28;20140;-75
2021/01/04 01:13:45;;;;;;;12.30;11.10;;;0.60;99.90;;;;;;5046336;28;20150;-74
2021/01/04 01:16:17;;;;;;;11.38;10.27;;;0.60;99.90;;;;;;5042996;28;20106;-74
2021/01/04 01:18:48;;;;;;;11.95;10.75;;;0.60;99.90;;;;;;5028957;28;20584;-75
2021/01/04 01:21:15;;;;;;;11.40;10.27;;;0.60;99.90;;;;;;5043064;28;20140;-75
2021/01/04 01:23:42;;;;;;;12.05;10.85;;;0.60;99.90;;;;;;5045493;28;20234;-75
2021/01/04 01:26:11;;;;;;;11.90;10.80;;;0.60;99.90;;;;;;5044862;28;20068;-75
2021/01/04 01:29:13;;;;;;;12.15;10.95;;;0.60;99.90;;;;;;5045958;28;20053;-76
2021/01/04 01:32:11;;;;;;;11.82;10.75;;;0.60;99.90;;;;;;5044707;28;20053;-75
2021/01/04 01:34:56;;;;;;;11.20;10.25;;;0.60;99.90;;;;;;5046944;28;20049;-76
2021/01/04 01:38:01;;;;;;;12.38;11.18;;;0.60;99.90;;;;;;5021147;28;20113;-75
2021/01/04 01:40:40;;;;;;;13.00;11.70;;;0.60;99.90;;;;;;5021239;28;20067;-77
2021/01/04 01:43:48;;;;;;;14.52;11.93;;;0.60;99.90;;;;;;5044631;28;20383;-77
2021/01/04 01:46:27;;;;;;;13.15;11.80;;;0.60;99.90;;;;;;5045762;28;20053;-76
2021/01/04 01:49:23;;;;;;;13.57;11.77;;;0.60;99.90;;;;;;5046319;28;20135;-75
2021/01/04 01:52:05;;;;;;;12.13;11.00;;;0.70;99.90;;;;;;5024996;28;20096;-76
2021/01/04 01:54:58;;;;;;;12.40;11.23;;;0.60;99.90;;;;;;5046832;28;20060;-75
2021/01/04 01:58:07;;;;;;;12.85;11.65;;;0.60;99.90;;;;;;5045662;28;20049;-75
2021/01/04 02:01:03;;;;;;;11.90;10.85;;;0.60;99.90;;;;;;5026054;28;20147;-76
2021/01/04 02:04:12;;;;;;;11.52;10.52;;;0.60;99.90;;;;;;5011639;28;20073;-76
2021/01/04 02:07:05;;;;;;;12.45;11.35;;;0.60;99.90;;;;;;5033420;28;20053;-75
2021/01/04 02:09:40;;;;;;;11.38;10.40;;;0.60;99.90;;;;;;5030586;28;20052;-75
2021/01/04 02:12:12;;;;;;;;;;;0.60;99.90;;;;;;5044722;28;20056;-76
2021/01/04 02:15:00;;;;;;;11.63;10.43;;;0.60;99.90;;;;;;5044821;28;19928;-77
2021/01/04 02:17:48;;;;;;;12.32;11.05;;;0.60;99.90;;;;;;5042937;28;20056;-76
2021/01/04 02:20:38;;;;;;;12.65;11.32;;;0.50;99.90;;;;;;5019724;28;20057;-77
2021/01/04 02:23:17;;;;;;;13.63;12.35;;;0.60;99.90;;;;;;5039134;28;20136;-76
2021/01/04 02:25:47;;;;;;;12.30;11.20;;;0.60;99.90;;;;;;5031683;28;20063;-76
2021/01/04 02:28:17;;;;;;;12.55;11.35;;;0.60;99.90;;;;;;5045257;28;20057;-76
2021/01/04 02:30:43;;;;;;;12.40;11.18;;;0.60;99.90;;;;;;5043629;28;20177;-76
2021/01/04 02:33:12;;;;;;;12.82;11.52;;;0.70;99.90;;;;;;5027570;28;20060;-74
2021/01/04 02:35:40;;;;;;;12.57;11.38;;;0.70;99.90;;;;;;5027140;28;20048;-75
2021/01/04 02:38:07;;;;;;;14.32;12.93;;;0.70;99.90;;;;;;5039564;28;20056;-75
2021/01/04 02:40:34;;;;;;;11.98;10.88;;;0.70;99.90;;;;;;5027019;28;20056;-75
2021/01/04 02:43:01;;;;;;;13.55;12.25;;;0.60;99.90;;;;;;5026862;28;20053;-75
2021/01/04 02:45:30;;;;;;;12.90;11.80;;;0.60;99.90;;;;;;5044041;28;20144;-75
2021/01/04 02:48:23;;;;;;;13.13;11.95;;;0.60;99.90;;;;;;5027247;28;20063;-75
2021/01/04 02:51:10;;;;;;;12.35;11.15;;;0.50;99.90;;;;;;5043506;28;20048;-75
2021/01/04 02:53:57;;;;;;;14.15;12.75;;;0.60;99.90;;;;;;5042971;28;20048;-76
2021/01/04 02:56:40;;;;;;;13.02;11.85;;;0.60;99.90;;;;;;5018262;28;20111;-76
2021/01/04 02:59:27;;;;;;;12.55;11.25;;;0.60;99.90;;;;;;5025213;28;20075;-76
2021/01/04 03:02:07;;;;;;;11.85;10.68;;;0.60;99.90;;;;;;5006708;28;20067;-76
2021/01/04 03:04:36;;;;;;;11.93;10.93;;;0.60;99.90;;;;;;5025880;28;20092;-76
2021/01/04 03:07:22;;;;;;;11.60;10.60;;;0.50;99.90;;;;;;5022293;28;20055;-75
2021/01/04 03:09:51;;;;;;;10.52;9.52;;;0.50;99.90;;;;;;5022914;28;20582;-74
2021/01/04 03:12:26;;;;;;;11.20;10.02;;;0.50;99.90;;;;;;5022531;28;20056;-74
2021/01/04 03:14:55;;;;;;;11.18;9.93;;;0.50;99.90;;;;;;5023618;28;20256;-74
2021/01/04 03:17:35;;;;;;;11.27;10.18;;;0.40;99.90;;;;;;5022924;28;20140;-75
2021/01/04 03:20:07;;;;;;;11.13;10.02;;;0.50;99.90;;;;;;5022987;28;20128;-75
2021/01/04 03:22:35;;;;;;;10.50;9.60;;;0.40;99.90;;;;;;5026592;28;20131;-75
2021/01/04 03:25:03;;;;;;;10.95;9.82;;;0.40;99.90;;;;;;5043376;28;20052;-74
2021/01/04 03:27:32;;;;;;;10.60;9.48;;;0.50;99.90;;;;;;5043167;28;20482;-75
2021/01/04 03:29:59;;;;;;;10.70;9.60;;;0.40;99.90;;;;;;5044465;28;20102;-74
2021/01/04 03:32:25;;;;;;;12.52;10.82;;;0.40;99.90;;;;;;5043041;28;20056;-75
2021/01/04 03:34:52;;;;;;;11.50;10.48;;;0.40;99.90;;;;;;5043205;28;20060;-75
2021/01/04 03:37:20;;;;;;;12.85;11.45;;;0.50;99.90;;;;;;5033937;28;20083;-75
2021/01/04 03:39:47;;;;;;;12.30;10.93;;;0.40;99.90;;;;;;5043571;28;20081;-75
2021/01/04 03:42:13;;;;;;;12.40;10.63;;;0.40;99.90;;;;;;5042307;28;20076;-75
2021/01/04 03:44:40;;;;;;;13.15;11.85;;;0.40;99.90;;;;;;5042839;28;20111;-76
2021/01/04 03:47:07;;;;;;;13.10;11.75;;;0.40;99.90;;;;;;5043240;28;20094;-74
2021/01/04 03:49:33;;;;;;;12.90;11.52;;;0.40;99.90;;;;;;5027110;28;20642;-76
2021/01/04 03:52:00;;;;;;;13.70;12.23;;;0.40;99.90;;;;;;5043710;28;20053;-76
2021/01/04 03:54:27;;;;;;;15.70;12.48;;;0.50;99.90;;;;;;5043622;28;20076;-75
2021/01/04 03:56:53;;;;;;;13.43;12.02;;;0.40;99.90;;;;;;5029858;28;20105;-75
2021/01/04 03:59:20;;;;;;;14.20;12.75;;;0.40;99.90;;;;;;5024614;28;20156;-75
2021/01/04 04:01:52;;;;;;;13.75;12.30;;;0.40;99.90;;;;;;5022921;28;20524;-75
2021/01/04 04:04:19;;;;;;;13.75;12.27;;;0.50;99.90;;;;;;5024136;28;20069;-75
2021/01/04 04:06:46;;;;;;;15.43;12.63;;;0.40;99.90;;;;;;5041318;28;20474;-75
2021/01/04 04:09:14;;;;;;;15.35;13.27;;;0.50;99.90;;;;;;5022810;28;20160;-75
2021/01/04 04:11:41;;;;;;;17.20;13.23;;;0.50;99.90;;;;;;5022916;28;20041;-74
2021/01/04 04:14:08;;;;;;;18.00;14.48;;;0.50;99.90;;;;;;5029230;28;20391;-76
2021/01/04 04:16:34;;;;;;;16.95;14.25;;;0.50;99.90;;;;;;5028853;28;20045;-75
2021/01/04 04:19:00;;;;;;;14.45;12.52;;;0.50;99.90;;;;;;5024767;28;20053;-75
2021/01/04 04:21:27;;;;;;;16.17;14.45;;;0.40;99.90;;;;;;5041745;28;20131;-75
2021/01/04 04:23:53;;;;;;;16.42;14.32;;;0.40;99.90;;;;;;5046173;28;20084;-75
2021/01/04 04:26:23;;;;;;;16.50;13.40;;;0.50;99.90;;;;;;5046045;28;20061;-75
2021/01/04 04:28:49;;;;;;;15.80;13.32;;;0.60;99.90;;;;;;5047595;28;20513;-75
2021/01/04 04:31:16;;;;;;;17.08;14.50;;;0.50;99.90;;;;;;5029272;28;20079;-74
2021/01/04 04:33:43;;;;;;;19.00;13.73;;;0.50;99.90;;;;;;5029740;28;20057;-75
2021/01/04 04:36:15;;;;;;;15.93;14.00;;;0.50;99.90;;;;;;5043258;28;20328;-75
2021/01/04 04:38:42;;;;;;;16.45;13.77;;;0.40;99.90;;;;;;5034132;28;20049;-74
2021/01/04 04:41:20;;;;;;;17.10;13.40;;;0.50;99.90;;;;;;5036793;28;20136;-75
2021/01/04 04:43:48;;;;;;;17.50;13.95;;;0.60;99.90;;;;;;5046517;28;20091;-74
2021/01/04 04:46:36;;;;;;;16.33;13.52;;;0.60;99.90;;;;;;5042306;28;20076;-75
2021/01/04 04:49:49;;;;;;;16.20;14.45;;;0.60;99.90;;;;;;5034773;28;20072;-75
2021/01/04 04:52:40;;;;;;;15.48;13.52;;;0.60;99.90;;;;;;5022471;28;20076;-76
2021/01/04 04:55:18;;;;;;;14.93;13.43;;;0.60;99.90;;;;;;5007549;28;20053;-75
2021/01/04 04:58:04;;;;;;;15.73;13.50;;;0.50;99.90;;;;;;5040990;28;20138;-75
2021/01/04 05:01:04;;;;;;;17.80;13.98;;;0.50;99.90;;;;;;5046807;28;20157;-74
2021/01/04 05:03:52;;;;;;;13.85;11.75;;;0.50;99.90;;;;;;5043356;28;20120;-75
2021/01/04 05:06:37;;;;;;;17.60;12.20;;;0.50;99.90;;;;;;5023732;28;20049;-75
2021/01/04 05:09:31;;;;;;;13.68;11.65;;;0.50;99.90;;;;;;5045078;28;20080;-75
2021/01/04 05:12:15;;;;;;;14.82;11.65;;;0.40;99.90;;;;;;5046083;28;20198;-75
2021/01/04 05:15:00;;;;;;;14.80;11.82;;;0.40;99.90;;;;;;5045820;28;20053;-74
2021/01/04 05:17:44;;;;;;;14.95;13.07;;;0.40;99.90;;;;;;5046309;28;20136;-75
2021/01/04 05:20:18;;;;;;;14.07;12.18;;;0.50;99.90;;;;;;5044157;28;20567;-74
2021/01/04 05:22:47;;;;;;;14.20;11.68;;;0.40;99.90;;;;;;5041796;28;20041;-76
2021/01/04 05:25:31;;;;;;;17.70;12.63;;;0.50;99.90;;;;;;5020576;28;20132;-76
2021/01/04 05:28:15;;;;;;;13.48;11.85;;;0.50;99.90;;;;;;5027715;28;20050;-74
2021/01/04 05:31:10;;;;;;;14.57;12.90;;;0.50;99.90;;;;;;5022247;28;20490;-75
2021/01/04 05:33:54;;;;;;;13.63;12.35;;;0.50;99.90;;;;;;5035924;28;20060;-75
2021/01/04 05:36:37;;;;;;;12.93;11.63;;;0.50;99.90;;;;;;5044529;28;20211;-75
2021/01/04 05:39:22;;;;;;;12.85;11.63;;;0.50;99.90;;;;;;5037845;28;20148;-76
2021/01/04 05:41:57;;;;;;;11.85;10.80;;;0.50;99.90;;;;;;5036778;28;20041;-75
2021/01/04 05:44:55;;;;;;;10.68;9.68;;;0.40;99.90;;;;;;5027925;28;20539;-75
2021/01/04 05:47:25;;;;;;;9.80;8.90;;;0.40;99.90;;;;;;5045050;28;20398;-75
2021/01/04 05:50:14;;;;;;;12.27;11.18;;;0.50;99.90;;;;;;5040108;28;20128;-75
2021/01/04 05:52:41;;;;;;;10.40;9.50;;;0.50;99.90;;;;;;5035761;28;20140;-75
2021/01/04 05:55:09;;;;;;;11.07;10.05;;;0.50;99.90;;;;;;5046240;28;20068;-75
2021/01/04 05:57:44;;;;;;;11.93;10.73;;;0.50;99.90;;;;;;5061464;28;20053;-75
2021/01/04 06:00:12;;;;;;;11.40;10.40;;;0.40;99.90;;;;;;5060580;28;20521;-74
2021/01/04 06:02:40;;;;;;;10.50;9.50;;;0.40;99.90;;;;;;5043878;28;20053;-75
2021/01/04 06:05:16;;;;;;;9.60;8.63;;;0.40;99.90;;;;;;5042847;28;20144;-75
2021/01/04 06:07:45;;;;;;;10.48;9.43;;;0.40;99.90;;;;;;5037016;28;20054;-75
2021/01/04 06:10:30;;;;;;;9.48;8.57;;;0.40;99.90;;;;;;5007598;28;20526;-75
2021/01/04 06:13:16;;;;;;;10.32;9.23;;;0.40;99.90;;;;;;5028596;28;20076;-76
2021/01/04 06:15:42;;;;;;;9.00;8.20;;;0.40;99.90;;;;;;5023589;28;20415;-75
2021/01/04 06:18:20;;;;;;;10.10;9.10;;;0.40;99.90;;;;;;5025254;28;20081;-75
2021/01/04 06:20:46;;;;;;;10.05;9.07;;;0.40;99.90;;;;;;5024547;28;20034;-75
2021/01/04 06:23:25;;;;;;;9.60;8.80;;;0.40;99.90;;;;;;5024554;28;20049;-76
2021/01/04 06:26:04;;;;;;;9.23;8.23;;;0.40;99.90;;;;;;4998963;28;20074;-75
2021/01/04 06:28:42;;;;;;;11.57;10.48;;;0.40;99.90;;;;;;5024547;28;20052;-75
2021/01/04 06:31:12;;;;;;;9.95;8.88;;;0.40;99.90;;;;;;5023043;28;20053;-74
2021/01/04 06:33:39;;;;;;;11.00;9.88;;;0.40;99.90;;;;;;5024220;28;20683;-74
2021/01/04 06:36:17;;;;;;;10.65;9.65;;;0.40;99.90;;;;;;5021230;28;20063;-75
2021/01/04 06:38:44;;;;;;;10.80;9.73;;;0.30;99.90;;;;;;5019870;28;20085;-75
2021/01/04 06:41:15;;;;;;;9.80;8.88;;;0.40;99.90;;;;;;5023873;28;20053;-75
2021/01/04 06:43:42;;;;;;;10.25;9.25;;;0.40;99.90;;;;;;5024428;28;20053;-75
2021/01/04 06:46:29;;;;;;;11.50;9.68;;;0.40;99.90;;;;;;5023103;28;20128;-75
2021/01/04 06:49:10;;;;;;;10.77;9.73;;;0.40;99.90;;;;;;5024614;28;20067;-74
2021/01/04 06:52:12;;;;;;;10.52;9.43;;;0.40;99.90;;;;;;5015997;28;20513;-75
2021/01/04 06:54:58;;;;;;;9.60;8.43;;;0.40;99.90;;;;;;5024213;28;20437;-74
2021/01/04 06:57:52;;;;;;;9.93;8.93;;;0.40;99.90;;;;;;5006900;28;20160;-76
2021/01/04 07:00:48;;;;;;;9.70;8.75;;;0.40;99.90;;;;;;5008370;28;20164;-75
2021/01/04 07:03:45;;;;;;;10.35;9.35;;;0.40;99.90;;;;;;5042994;28;20597;-75
2021/01/04 07:06:26;;;;;;;9.25;8.35;;;0.40;99.90;;;;;;5033196;28;20437;-75
2021/01/04 07:09:21;;;;;;;10.23;9.27;;;0.40;99.90;;;;;;5033228;28;20069;-75
2021/01/04 07:12:49;;;;;;;9.30;8.57;;;0.40;99.90;;;;;;5018807;28;20215;-75
2021/01/04 07:15:17;;;;;;;8.93;8.10;;;0.50;99.90;;;;;;4993457;28;20360;-77
2021/01/04 07:18:04;;;;;;;9.65;8.10;;;0.40;99.90;;;;;;5013560;28;20140;-75
2021/01/04 07:20:45;;;;;;;8.63;7.68;;;0.40;99.90;;;;;;5021743;28;20067;-75
2021/01/04 07:23:27;;;;;;;9.70;8.70;;;0.40;99.90;;;;;;5043288;28;20112;-75
2021/01/04 07:26:13;;;;;;;8.57;7.55;;;0.40;99.90;;;;;;5044174;28;20098;-75
2021/01/04 07:29:02;;;;;;;8.93;8.02;;;0.40;99.90;;;;;;5043905;28;20060;-75
2021/01/04 07:31:38;;;;;;;10.17;9.27;;;0.40;99.90;;;;;;5043164;28;20497;-75
2021/01/04 07:34:22;;;;;;;7.70;6.95;;;0.50;99.90;;;;;;5011516;28;20175;-75
2021/01/04 07:37:15;;;;;;;9.02;8.15;;;0.40;99.90;;;;;;5033596;28;20057;-75
2021/01/04 07:39:57;;;;;;;8.85;7.95;;;0.40;99.90;;;;;;5044082;28;20113;-75
2021/01/04 07:42:49;;;;;;;8.68;7.88;;;0.50;99.90;;;;;;5030947;28;20099;-76
2021/01/04 07:45:29;;;;;;;8.43;7.63;;;0.50;99.90;;;;;;5023058;28;20436;-74
2021/01/04 07:48:17;;;;;;;8.73;7.82;;;0.40;99.90;;;;;;5025254;28;20049;-74
2021/01/04 07:50:46;;;;;;;9.27;8.38;;;0.50;99.90;;;;;;5032972;28;20071;-73
2021/01/04 07:53:41;;;;;;;9.95;8.95;;;0.50;99.90;;;;;;5034533;28;20057;-74
2021/01/04 07:56:29;;;;;;;9.40;8.50;;;0.50;99.90;;;;;;5033063;28;20052;-74
2021/01/04 07:59:14;;;;;;;9.23;8.25;;;0.50;99.90;;;;;;5026333;28;20049;-74
2021/01/04 08:01:59;;;;;;;10.70;8.80;;;0.50;99.90;;;;;;5028247;28;20052;-75
2021/01/04 08:04:25;;;;;;;10.20;8.77;;;0.50;99.90;;;;;;5012574;28;20443;-74
2021/01/04 08:07:08;;;;;;;10.25;9.18;;;0.60;99.90;;;;;;5020632;28;20057;-75
2021/01/04 08:09:40;;;;;;;10.27;8.93;;;0.60;99.90;;;;;;5046811;28;20084;-75
2021/01/04 08:12:23;;;;;;;10.85;9.18;;;0.60;99.90;;;;;;5046312;28;20045;-74
2021/01/04 08:15:15;;;;;;;9.38;8.43;;;0.70;99.90;;;;;;5030350;28;20148;-74
2021/01/04 08:18:01;;;;;;;10.73;9.73;;;0.60;99.90;;;;;;5029618;28;20499;-74
2021/01/04 08:20:29;;;;;;;12.00;10.63;;;0.60;99.90;;;;;;5046806;28;20127;-74
2021/01/04 08:23:26;;;;;;;11.05;9.95;;;0.60;99.90;;;;;;5046983;28;20041;-74
2021/01/04 08:26:04;;;;;;;11.48;10.27;;;0.70;99.90;;;;;;5037509;28;20131;-74
2021/01/04 08:28:48;;;;;;;11.77;10.57;;;0.70;99.90;;;;;;5046914;28;20478;-74
2021/01/04 08:31:32;;;;;;;12.63;10.63;;;0.70;99.90;;;;;;5045885;28;20053;-74
2021/01/04 08:34:01;;;;;;;13.43;10.98;;;0.80;99.90;;;;;;5047621;28;20071;-75
2021/01/04 08:36:41;;;;;;;13.85;11.95;;;0.80;99.90;;;;;;5043456;28;20072;-74
2021/01/04 08:39:13;;;;;;;13.40;11.15;;;0.80;99.90;;;;;;5037238;28;20131;-75
2021/01/04 08:41:42;;;;;;;11.88;10.68;;;0.80;99.90;;;;;;5027866;28;20131;-75
2021/01/04 08:44:15;;;;;;;15.70;11.52;;;0.90;99.90;;;;;;5018747;28;20077;-75
2021/01/04 08:46:42;;;;;;;12.20;10.90;;;0.90;99.90;;;;;;4998866;28;20038;-75
2021/01/04 08:49:19;;;;;;;13.23;10.93;;;0.80;99.90;;;;;;5034912;28;20054;-75
2021/01/04 08:51:47;;;;;;;12.23;10.93;;;0.80;99.90;;;;;;5016764;28;20111;-75
2021/01/04 08:54:13;;;;;;;16.20;12.63;;;1.00;99.90;;;;;;5026491;28;20064;-75
2021/01/04 08:56:44;;;;;;;13.20;11.80;;;1.10;99.90;;;;;;5021926;28;20077;-74
2021/01/04 08:59:20;;;;;;;11.68;10.48;;;1.20;99.90;;;;;;4989509;28;20050;-75
2021/01/04 09:01:51;;;;;;;13.68;12.45;;;1.20;99.90;;;;;;5020142;28;20079;-75
2021/01/04 09:04:35;;;;;;;11.95;10.70;;;1.10;99.90;;;;;;5024279;28;20735;-75
2021/01/04 09:07:10;;;;;;;12.10;11.00;;;1.20;99.90;;;;;;5031465;28;20053;-75
2021/01/04 09:09:43;;;;;;;12.50;11.20;;;1.10;99.90;;;;;;5019525;28;20073;-75
2021/01/04 09:12:28;;;;;;;11.70;10.60;;;1.10;99.90;;;;;;5019929;28;20107;-75
2021/01/04 09:14:59;;;;;;;12.98;11.70;;;1.10;99.90;;;;;;5034729;28;20049;-75
2021/01/04 09:17:40;;;;;;;11.63;10.57;;;1.10;99.90;;;;;;5031476;28;20151;-75
2021/01/04 09:20:47;;;;;;;13.80;12.15;;;1.10;99.90;;;;;;5037943;28;20804;-76
2021/01/04 09:23:22;;;;;;;12.35;11.20;;;1.00;99.90;;;;;;5057235;28;20585;-76
2021/01/04 09:26:29;;;;;;;11.70;10.63;;;1.10;99.90;;;;;;5027480;28;20119;-76
2021/01/04 09:29:23;;;;;;;12.13;10.98;;;1.20;99.90;;;;;;5031228;28;20149;-76
2021/01/04 09:32:14;;;;;;;10.40;9.40;;;1.20;99.90;;;;;;5025803;28;20570;-74
2021/01/04 09:34:41;;;;;;;11.90;10.80;;;1.20;99.90;;;;;;5034216;28;20085;-75
2021/01/04 09:37:11;;;;;;;12.18;11.18;;;1.30;99.90;;;;;;5035257;28;20084;-75
2021/01/04 09:39:40;;;;;;;12.93;11.68;;;1.20;99.90;;;;;;5044573;28;20110;-75
2021/01/04 09:42:12;;;;;;;12.43;11.32;;;1.30;99.90;;;;;;5033334;28;20063;-75
2021/01/04 09:44:39;;;;;;;13.13;12.13;;;1.30;99.90;;;;;;5035597;28;20041;-75
2021/01/04 09:47:11;;;;;;;12.30;11.18;;;1.40;99.90;;;;;;5035444;28;20139;-75
2021/01/04 09:49:47;;;;;;;11.20;10.13;;;1.30;99.90;;;;;;5044602;28;20543;-76
2021/01/04 09:52:20;;;;;;;10.20;9.30;;;1.20;99.90;;;;;;5038795;28;20061;-75
2021/01/04 09:54:50;;;;;;;11.90;10.85;;;1.20;99.90;;;;;;5038707;28;20060;-75
2021/01/04 09:57:22;;;;;;;13.75;12.35;;;1.30;99.90;;;;;;5028502;28;20620;-75
2021/01/04 09:59:50;;;;;;;13.63;12.43;;;1.40;99.90;;;;;;5009388;28;20049;-75
2021/01/04 10:02:31;;;;;;;14.38;13.05;;;1.30;99.90;;;;;;5040724;28;20402;-75
2021/01/04 10:05:10;;;;;;;14.48;13.02;;;1.40;99.90;;;;;;5025217;28;20048;-75
2021/01/04 10:07:36;;;;;;;;;;;1.50;99.90;;;;;;5029776;28;20124;-75
2021/01/04 10:10:13;;;;;;;13.45;12.35;;;1.50;99.90;;;;;;5043553;28;20000;-75
2021/01/04 10:12:39;;;;;;;15.05;13.63;;;1.40;99.90;;;;;;5024795;28;20041;-75
2021/01/04 10:15:17;;;;;;;15.45;13.73;;;1.30;99.90;;;;;;5035056;28;20119;-75
2021/01/04 10:18:00;;;;;;;15.50;14.05;;;1.40;99.90;;;;;;5044653;28;20110;-74
2021/01/04 10:20:47;;;;;;;15.70;14.25;;;1.30;99.90;;;;;;5024513;28;20056;-74
2021/01/04 10:23:23;;;;;;;16.45;14.85;;;1.30;99.90;;;;;;5030645;28;20266;-75
2021/01/04 10:25:54;;;;;;;16.00;14.50;;;1.40;99.90;;;;;;5034917;28;20210;-75
2021/01/04 10:28:20;;;;;;;16.20;14.60;;;1.40;99.90;;;;;;5023066;28;20149;-75
2021/01/04 10:30:46;;;;;;;15.55;14.07;;;1.40;99.90;;;;;;5042151;28;20037;-74
2021/01/04 10:33:27;;;;;;;15.95;14.45;;;1.40;99.90;;;;;;5044570;28;20083;-75
2021/01/04 10:36:06;;;;;;;16.70;15.05;;;1.40;99.90;;;;;;5042893;28;20261;-75
2021/01/04 10:38:35;;;;;;;14.93;13.45;;;1.30;99.90;;;;;;5028683;28;20127;-75
2021/01/04 10:41:08;;;;;;;13.38;12.13;;;1.20;99.90;;;;;;5056659;28;20158;-75
2021/01/04 10:43:35;;;;;;;14.57;13.07;;;1.10;99.90;;;;;;5034028;28;20082;-74
2021/01/04 10:46:33;;;;;;;14.73;13.20;;;1.10;99.90;;;;;;5041104;28;20259;-74
2021/01/04 10:49:05;;;;;;;15.90;14.32;;;1.20;99.90;;;;;;5043611;28;20055;-74
2021/01/04 10:51:34;;;;;;;14.68;13.25;;;1.30;99.90;;;;;;5042103;28;20072;-74
2021/01/04 10:54:12;;;;;;;15.10;13.68;;;1.20;99.90;;;;;;5036094;28;20132;-74
2021/01/04 10:56:43;;;;;;;13.77;12.50;;;1.20;99.90;;;;;;5026311;28;20436;-74
2021/01/04 10:59:23;;;;;;;14.45;13.13;;;1.20;99.90;;;;;;5020145;28;20057;-74
2021/01/04 11:01:54;;;;;;;13.05;12.05;;;1.20;99.90;;;;;;5029734;28;20049;-75
2021/01/04 11:04:20;;;;;;;12.13;11.02;;;1.20;99.90;;;;;;5039428;28;20571;-74
2021/01/04 11:07:01;;;;;;;15.02;13.70;;;1.20;99.90;;;;;;5017404;28;20595;-75
2021/01/04 11:09:31;;;;;;;14.32;12.95;;;1.20;99.90;;;;;;5017822;28;20481;-74
2021/01/04 11:12:20;;;;;;;14.38;12.77;;;1.20;99.90;;;;;;5042683;28;20041;-75
2021/01/04 11:14:59;;;;;;;14.77;13.38;;;1.30;99.90;;;;;;5043722;28;20064;-74
2021/01/04 11:17:34;;;;;;;16.02;14.52;;;1.20;99.90;;;;;;5042897;28;20486;-73
2021/01/04 11:20:17;;;;;;;13.27;12.18;;;1.20;99.90;;;;;;5044124;28;20052;-75
2021/01/04 11:22:43;;;;;;;14.98;13.57;;;1.20;99.90;;;;;;5042946;28;20103;-74
2021/01/04 11:25:12;;;;;;;11.60;10.52;;;1.10;99.90;;;;;;5043304;28;20085;-75
2021/01/04 11:27:38;;;;;;;17.23;15.35;;;1.10;99.90;;;;;;5043695;28;20408;-75
2021/01/04 11:30:06;;;;;;;13.73;12.43;;;1.10;99.90;;;;;;5043714;28;20053;-75
2021/01/04 11:32:32;;;;;;;13.77;12.70;;;1.10;99.90;;;;;;5020291;28;20049;-74
2021/01/04 11:35:00;;;;;;;14.25;13.05;;;1.10;99.90;;;;;;5023510;28;20080;-75
2021/01/04 11:37:27;;;;;;;12.88;11.82;;;1.10;99.90;;;;;;5013380;28;20036;-74
2021/01/04 11:39:54;;;;;;;13.95;12.75;;;1.00;99.90;;;;;;5022547;28;20053;-74
2021/01/04 11:42:21;;;;;;;14.15;12.85;;;1.00;99.90;;;;;;5030639;28;20069;-75
2021/01/04 11:44:48;;;;;;;14.43;13.00;;;1.10;99.90;;;;;;5006381;28;20045;-74
2021/01/04 11:47:17;;;;;;;14.38;13.07;;;1.10;99.90;;;;;;5022048;28;20103;-74
2021/01/04 11:49:43;;;;;;;13.15;12.00;;;1.00;99.90;;;;;;5027729;28;20088;-73
2021/01/04 11:52:10;;;;;;;14.93;13.50;;;1.00;99.90;;;;;;5041971;28;20145;-74
2021/01/04 11:54:41;;;;;;;13.02;11.93;;;1.00;99.90;;;;;;5043742;28;20045;-74
2021/01/04 11:57:07;;;;;;;13.60;12.40;;;1.00;99.90;;;;;;5041814;28;20122;-73
2021/01/04 11:59:34;;;;;;;13.85;12.55;;;0.90;99.90;;;;;;5041617;28;20049;-74
2021/01/04 12:02:01;;;;;;;14.40;13.00;;;0.90;99.90;;;;;;5058459;28;20144;-73
2021/01/04 12:04:27;;;;;;;12.57;11.50;;;0.90;99.90;;;;;;5034749;28;20065;-74
2021/01/04 12:06:53;;;;;;;14.32;12.18;;;0.90;99.90;;;;;;5036090;28;20346;-74
2021/01/04 12:09:20;;;;;;;11.95;10.75;;;0.90;99.90;;;;;;5034598;28;20127;-74
2021/01/04 12:11:50;;;;;;;13.27;11.90;;;1.00;99.90;;;;;;5031252;28;20485;-75
2021/01/04 12:14:17;;;;;;;14.20;12.85;;;1.00;99.90;;;;;;5035671;28;20084;-74
2021/01/04 12:16:44;;;;;;;13.30;12.10;;;1.00;99.90;;;;;;5025031;28;20059;-75
2021/01/04 12:19:11;;;;;;;15.75;14.25;;;1.00;99.90;;;;;;5042207;28;20702;-74
2021/01/04 12:21:38;;;;;;;17.65;15.93;;;1.10;99.90;;;;;;5043286;28;20118;-74
2021/01/04 12:24:05;;;;;;;17.38;15.57;;;1.00;99.90;;;;;;5043363;28;20136;-74
2021/01/04 12:26:31;;;;;;;18.30;16.50;;;1.10;99.90;;;;;;5042055;28;20132;-74
2021/01/04 12:28:58;;;;;;;16.85;15.35;;;1.10;99.90;;;;;;5043483;28;20057;-74
2021/01/04 12:31:24;;;;;;;18.35;16.65;;;1.20;99.90;;;;;;5025026;28;20077;-75
2021/01/04 12:33:51;;;;;;;16.92;15.15;;;1.20;99.90;;;;;;5042054;28;20148;-74
2021/01/04 12:36:23;;;;;;;17.13;15.32;;;1.20;99.90;;;;;;5037646;28;20056;-74
2021/01/04 12:38:50;;;;;;;16.85;15.30;;;1.10;99.90;;;;;;5016120;28;20110;-74
2021/01/04 12:41:17;;;;;;;17.25;15.75;;;1.20;99.90;;;;;;5029850;28;20520;-74
2021/01/04 12:43:45;;;;;;;16.20;14.70;;;1.20;99.90;;;;;;5022144;28;20167;-74
2021/01/04 12:46:12;;;;;;;15.63;14.23;;;1.20;99.90;;;;;;5025438;28;20057;-74
2021/01/04 12:48:39;;;;;;;14.60;13.40;;;1.10;99.90;;;;;;5028769;28;20052;-75
2021/01/04 12:51:07;;;;;;;15.25;13.85;;;1.10;99.90;;;;;;5051424;28;20041;-75
2021/01/04 12:53:34;;;;;;;14.80;13.50;;;1.20;99.90;;;;;;5047489;28;20585;-75
2021/01/04 12:56:00;;;;;;;14.75;13.52;;;1.10;99.90;;;;;;5040469;28;20053;-75
2021/01/04 12:58:28;;;;;;;13.30;12.20;;;1.00;99.90;;;;;;5043833;28;20045;-75
2021/01/04 13:00:55;;;;;;;13.65;12.43;;;1.10;99.90;;;;;;5046236;28;20131;-75
2021/01/04 13:03:25;;;;;;;11.80;10.98;;;1.10;99.90;;;;;;5043140;28;20398;-75
2021/01/04 13:05:51;;;;;;;12.32;11.43;;;1.20;99.90;;;;;;5042100;28;20496;-75
2021/01/04 13:08:18;;;;;;;12.52;11.52;;;1.20;99.90;;;;;;5034881;28;20077;-75
2021/01/04 13:10:44;;;;;;;12.95;12.00;;;1.20;99.90;;;;;;5042093;28;20067;-75
2021/01/04 13:13:11;;;;;;;13.63;12.52;;;1.20;99.90;;;;;;5038424;28;20057;-75
2021/01/04 13:15:37;;;;;;;11.70;10.95;;;1.30;99.90;;;;;;5031335;28;20516;-76
2021/01/04 13:18:04;;;;;;;13.18;12.23;;;1.30;99.90;;;;;;5028835;28;20512;-75
2021/01/04 13:20:30;;;;;;;13.38;12.48;;;1.30;99.90;;;;;;5028048;28;20045;-76
2021/01/04 13:22:57;;;;;;;13.93;12.75;;;1.20;99.90;;;;;;5044939;28;20110;-75
2021/01/04 13:25:23;;;;;;;14.18;13.07;;;1.20;99.90;;;;;;5045367;28;20037;-76
2021/01/04 13:27:50;;;;;;;14.05;12.95;;;1.20;99.90;;;;;;5038872;28;20060;-75
2021/01/04 13:30:17;;;;;;;13.45;12.55;;;1.20;99.90;;;;;;5035581;28;20056;-75